Sao Rafael, Brazil
Current Conditions -  °F | °C
As of 9:00 PM on Sunday 21 Dec 2014 (Local Time) from SBNT Reporting Station
Scattered Clouds Scattered Clouds  
Wind Chill: 77°   Ceiling: Unl
Heat Index: 79°   Visibility: 6mi
Dew Point: 70°   Wind: 6mph
Humidity: 78%   Direction: 150°SSE
Pressure: 29.94"   Gusts: NA
Location:  5.8°S, 36.92°W
Report Text: SBNT 220000Z 15005KT 9999 SCT020 25/21 Q1014
Loading
Personal Weather Stations






























Interactive Weather Map New forecast layout! Learn more

10-Day Weather Forecast

Advertisements
Track Severe Weather on mobile